sim
Sign-in with your pilot id or email,
or register
Callsign
Passwort

Schedule Details

Flight Number: OEF9213
Departure: Kolkata International Airport (VECC) at 10:20
Arrival: Mumbai Chhatrapati Shivaji International Airport (VABB) at 12:50

Weather Information
Getting current METAR information for VECC 092300Z 00000KT 2800 HZ SCT020 17/13 Q1013 NOSIG
Getting current METAR information for VABB 092300Z 07004KT 3000 HZ NSC 26/20 Q1012 NOSIG

Schedule Frequency

Route Map